Time;durP1;ratioP1;P1;durP2;ratioP2;P2;SDS_P1;SDS_P2;PMS_P1;PMS_P2;Temp;Humidity;BMP_temperature;BMP_pressure;BME280_temperature;BME280_humidity;BME280_pressure;Samples;Min_cycle;Max_cycle;Signal;HPM_P1;HPM_P2
2022/04/16 00:02:04;;;;;;;;;21.25;18.75;;;;;-146.03;100.00;60875.16;6271893;22;45354;-85
2022/04/16 00:04:30;;;;;;;;;22.25;20.50;;;;;-146.03;100.00;60875.16;6243894;22;45310;-87
2022/04/16 00:06:56;;;;;;;;;21.25;19.00;;;;;-146.03;100.00;60875.16;6272446;22;45341;-85
2022/04/16 00:09:21;;;;;;;;;30.25;24.25;;;;;-146.03;100.00;60875.16;6272117;22;45561;-84
2022/04/16 00:11:48;;;;;;;;;21.50;20.00;;;;;-146.03;100.00;60875.16;6243961;22;47282;-85
2022/04/16 00:14:15;;;;;;;;;24.25;22.25;;;;;-146.03;100.00;60875.16;6272310;22;45341;-85
2022/04/16 00:16:41;;;;;;;;;26.00;23.50;;;;;-146.03;100.00;60875.16;6244560;22;45263;-85
2022/04/16 00:19:09;;;;;;;;;20.25;20.25;;;;;-146.03;100.00;60875.16;6271509;22;45552;-86
2022/04/16 00:21:35;;;;;;;;;22.25;21.50;;;;;-146.03;100.00;60875.16;6271002;22;45873;-85
2022/04/16 00:24:01;;;;;;;;;20.50;20.25;;;;;-146.03;100.00;60875.16;6271004;22;45386;-86
2022/04/16 00:26:28;;;;;;;;;20.50;19.75;;;;;-146.03;100.00;60875.16;6271260;22;45214;-86
2022/04/16 00:28:53;;;;;;;;;22.00;20.50;;;;;-146.03;100.00;60875.16;6271581;22;45234;-86
2022/04/16 00:31:19;;;;;;;;;19.75;19.00;;;;;-146.03;100.00;60875.16;6271297;22;45626;-87
2022/04/16 00:33:46;;;;;;;;;19.25;18.25;;;;;-146.03;100.00;60875.16;6270623;22;45319;-87
2022/04/16 00:36:14;;;;;;;;;19.75;17.25;;;;;-146.03;100.00;60875.16;6271452;22;45318;-83
2022/04/16 00:38:40;;;;;;;;;20.00;18.00;;;;;-146.03;100.00;60875.16;6271344;22;45297;-84
2022/04/16 00:41:06;;;;;;;;;24.50;19.00;;;;;-146.03;100.00;60875.16;6271079;22;45470;-84
2022/04/16 00:43:31;;;;;;;;;20.00;18.75;;;;;-146.03;100.00;60875.16;6271570;22;45752;-85
2022/04/16 00:45:57;;;;;;;;;20.00;17.25;;;;;-146.03;100.00;60875.16;6243635;22;45834;-86
2022/04/16 00:48:23;;;;;;;;;18.25;18.25;;;;;-146.03;100.00;60875.16;6272861;22;45517;-86
2022/04/16 00:50:52;;;;;;;;;17.25;17.00;;;;;-146.03;100.00;60875.16;6271407;22;45963;-87
2022/04/16 00:53:17;;;;;;;;;20.00;19.25;;;;;-146.03;100.00;60875.16;6271120;22;45333;-87
2022/04/16 00:55:43;;;;;;;;;18.25;18.25;;;;;-146.03;100.00;60875.16;6271531;22;45296;-86
2022/04/16 00:58:09;;;;;;;;;18.25;17.00;;;;;-146.03;100.00;60875.16;6271094;22;45350;-87
2022/04/16 01:00:34;;;;;;;;;16.75;15.75;;;;;-146.03;100.00;60875.16;6270806;22;45301;-86
2022/04/16 01:03:00;;;;;;;;;19.00;17.25;;;;;-146.03;100.00;60875.16;6270676;22;45762;-87
2022/04/16 01:05:26;;;;;;;;;19.50;17.75;;;;;-146.03;100.00;60875.16;6243779;22;45483;-87
2022/04/16 01:07:53;;;;;;;;;19.00;16.75;;;;;-146.03;100.00;60875.16;6271198;22;45298;-87
2022/04/16 01:10:20;;;;;;;;;18.00;16.50;;;;;-146.03;100.00;60875.16;6271286;22;45952;-87
2022/04/16 01:12:46;;;;;;;;;21.25;18.25;;;;;-146.03;100.00;60875.16;6270580;22;45241;-86
2022/04/16 01:15:11;;;;;;;;;19.25;17.25;;;;;-146.03;100.00;60875.16;6271136;22;45459;-87
2022/04/16 01:17:37;;;;;;;;;18.75;18.25;;;;;-146.03;100.00;60875.16;6270772;22;45434;-87
2022/04/16 01:20:03;;;;;;;;;16.50;15.50;;;;;-146.03;100.00;60875.16;6270586;22;45397;-87
2022/04/16 01:22:31;;;;;;;;;18.00;18.00;;;;;-146.03;100.00;60875.16;6271316;22;45335;-87
2022/04/16 01:24:56;;;;;;;;;19.00;19.00;;;;;-146.03;100.00;60875.16;6243637;22;45323;-88
2022/04/16 01:27:22;;;;;;;;;19.50;18.25;;;;;-146.03;100.00;60875.16;6270762;22;45261;-88
2022/04/16 01:29:48;;;;;;;;;18.00;17.50;;;;;-146.03;100.00;60875.16;6271499;22;45289;-88
2022/04/16 01:32:13;;;;;;;;;19.50;19.50;;;;;-146.03;100.00;60875.16;6272565;22;45351;-88
2022/04/16 01:34:40;;;;;;;;;22.25;18.75;;;;;-146.03;100.00;60875.16;6272814;22;45443;-87
2022/04/16 01:37:05;;;;;;;;;18.50;16.25;;;;;-146.03;100.00;60875.16;6272721;22;45265;-87
2022/04/16 01:39:31;;;;;;;;;18.50;17.50;;;;;-146.03;100.00;60875.16;6272409;22;45381;-87
2022/04/16 01:41:58;;;;;;;;;17.75;17.00;;;;;-146.03;100.00;60875.16;6244666;22;45309;-87
2022/04/16 01:44:23;;;;;;;;;17.75;16.75;;;;;-146.03;100.00;60875.16;6272016;22;45261;-87
2022/04/16 01:46:49;;;;;;;;;21.00;19.50;;;;;-146.03;100.00;60875.16;6272684;22;45228;-87
2022/04/16 01:49:14;;;;;;;;;15.50;15.50;;;;;-146.03;100.00;60875.16;6272300;22;49886;-87
2022/04/16 01:51:39;;;;;;;;;21.75;21.75;;;;;-146.03;100.00;60875.16;6272476;22;49244;-87
2022/04/16 01:54:04;;;;;;;;;24.50;20.75;;;;;-146.03;100.00;60875.16;6244691;22;45314;-88
2022/04/16 01:56:30;;;;;;;;;20.75;20.00;;;;;-146.03;100.00;60875.16;6272534;22;45631;-88
2022/04/16 01:58:55;;;;;;;;;20.75;20.00;;;;;-146.03;100.00;60875.16;6243928;22;47205;-88
2022/04/16 02:01:22;;;;;;;;;24.00;23.25;;;;;-146.03;100.00;60875.16;6272207;22;51015;-87
2022/04/16 02:03:47;;;;;;;;;19.25;18.00;;;;;-146.03;100.00;60875.16;6272763;22;45606;-88
2022/04/16 02:06:13;;;;;;;;;22.75;22.75;;;;;-146.03;100.00;60875.16;6272385;22;45309;-87
2022/04/16 02:08:38;;;;;;;;;21.00;19.50;;;;;-146.03;100.00;60875.16;6272180;22;45243;-87
2022/04/16 02:11:03;;;;;;;;;22.00;20.50;;;;;-146.03;100.00;60875.16;6244480;22;45251;-87
2022/04/16 02:13:30;;;;;;;;;22.50;21.25;;;;;-146.03;100.00;60875.16;6271846;22;45236;-87
2022/04/16 02:15:56;;;;;;;;;24.00;20.75;;;;;-146.03;100.00;60875.16;6272306;22;45230;-88
2022/04/16 02:18:22;;;;;;;;;21.50;18.25;;;;;-146.03;100.00;60875.16;6244245;22;48290;-87
2022/04/16 02:20:47;;;;;;;;;21.50;19.00;;;;;-146.03;100.00;60875.16;6271987;22;45309;-87
2022/04/16 02:23:13;;;;;;;;;22.00;20.75;;;;;-146.03;100.00;60875.16;6272119;22;45366;-87
2022/04/16 02:25:41;;;;;;;;;22.00;21.00;;;;;-146.03;100.00;60875.16;6244637;22;45544;-87
2022/04/16 02:28:06;;;;;;;;;21.25;20.50;;;;;-146.03;100.00;60875.16;6272451;22;45302;-87
2022/04/16 02:30:32;;;;;;;;;22.50;20.25;;;;;-146.03;100.00;60875.16;6272067;22;45727;-87
2022/04/16 02:32:58;;;;;;;;;20.00;18.75;;;;;-146.03;100.00;60875.16;6271999;22;45336;-87
2022/04/16 02:35:24;;;;;;;;;23.00;22.25;;;;;-146.03;100.00;60875.16;6244323;22;45323;-87
2022/04/16 02:37:50;;;;;;;;;24.25;22.00;;;;;-146.03;100.00;60875.16;6271828;22;45668;-86
2022/04/16 02:40:16;;;;;;;;;22.75;21.00;;;;;-146.03;100.00;60875.16;6272131;22;45329;-86
2022/04/16 02:42:44;;;;;;;;;18.50;18.50;;;;;-146.03;100.00;60875.16;6243747;22;45853;-88
2022/04/16 02:47:58;;;;;;;;;21.50;20.50;;;;;-146.03;100.00;60875.16;6272230;22;45321;-87
2022/04/16 02:50:25;;;;;;;;;22.75;20.75;;;;;-146.03;100.00;60875.16;6273156;22;45483;-88
2022/04/16 02:52:54;;;;;;;;;21.00;20.75;;;;;-146.03;100.00;60875.16;6273668;22;45308;-89
2022/04/16 02:55:20;;;;;;;;;22.25;20.00;;;;;-146.03;100.00;60875.16;6273452;22;45333;-88
2022/04/16 02:57:46;;;;;;;;;23.00;23.00;;;;;-146.03;100.00;60875.16;6272707;22;45341;-87
2022/04/16 03:00:13;;;;;;;;;22.75;21.00;;;;;-146.03;100.00;60875.16;6272709;22;45308;-88
2022/04/16 03:02:39;;;;;;;;;26.25;22.25;;;;;-146.03;100.00;60875.16;6272351;22;45299;-88
2022/04/16 03:05:06;;;;;;;;;24.25;21.25;;;;;-146.03;100.00;60875.16;6272490;22;45300;-88
2022/04/16 03:07:33;;;;;;;;;20.00;19.50;;;;;-146.03;100.00;60875.16;6246971;22;48126;-87
2022/04/16 03:09:58;;;;;;;;;21.25;20.50;;;;;-146.03;100.00;60875.16;6273470;22;45387;-89
2022/04/16 03:12:24;;;;;;;;;22.00;19.50;;;;;-146.03;100.00;60875.16;6244784;22;45443;-88
2022/04/16 03:17:33;;;;;;;;;24.25;22.25;;;;;-146.03;100.00;60875.16;6273122;22;45282;-87
2022/04/16 03:19:59;;;;;;;;;26.25;24.00;;;;;-146.03;100.00;60875.16;6272524;22;45475;-87
2022/04/16 03:22:25;;;;;;;;;25.25;20.75;;;;;-146.03;100.00;60875.16;6245996;22;45305;-88
2022/04/16 03:24:51;;;;;;;;;23.50;21.00;;;;;-146.03;100.00;60875.16;6272704;22;49414;-86
2022/04/16 03:27:16;;;;;;;;;21.50;21.00;;;;;-146.03;100.00;60875.16;6244587;22;47170;-88
2022/04/16 03:29:46;;;;;;;;;26.75;26.75;;;;;-146.03;100.00;60875.16;6245547;22;45862;-88
2022/04/16 03:32:11;;;;;;;;;29.25;24.00;;;;;-146.03;100.00;60875.16;6273248;22;45213;-88
2022/04/16 03:34:37;;;;;;;;;23.50;22.00;;;;;-146.03;100.00;60875.16;6245994;22;45469;-87
2022/04/16 03:37:03;;;;;;;;;27.75;26.75;;;;;-146.03;100.00;60875.16;6273650;22;45574;-87
2022/04/16 03:39:28;;;;;;;;;23.25;21.00;;;;;-146.03;100.00;60875.16;6273623;22;45356;-89
2022/04/16 03:41:54;;;;;;;;;26.25;25.00;;;;;-146.03;100.00;60875.16;6273689;22;45325;-88
2022/04/16 03:44:20;;;;;;;;;30.50;27.25;;;;;-146.03;100.00;60875.16;6273552;22;45250;-88
2022/04/16 03:46:45;;;;;;;;;25.25;22.25;;;;;-146.03;100.00;60875.16;6273563;22;45396;-88
2022/04/16 03:49:10;;;;;;;;;27.50;23.50;;;;;-146.03;100.00;60875.16;6273952;22;45457;-88
2022/04/16 03:51:36;;;;;;;;;26.00;24.00;;;;;-146.03;100.00;60875.16;6273912;22;45265;-89
2022/04/16 03:59:59;;;;;;;;;25.75;25.75;;;;;-146.03;100.00;60875.16;6245115;22;45397;-90
2022/04/16 04:02:14;;;;;;;;;25.00;24.75;;;;;-146.03;100.00;60875.16;6274634;22;45566;-87
2022/04/16 04:04:43;;;;;;;;;23.50;23.50;;;;;-146.03;100.00;60875.16;6273673;22;45243;-87
2022/04/16 04:07:08;;;;;;;;;24.75;24.75;;;;;-146.03;100.00;60875.16;6274352;22;46211;-87
2022/04/16 04:09:33;;;;;;;;;25.00;23.75;;;;;-146.03;100.00;60875.16;6273985;22;45377;-86
2022/04/16 04:11:59;;;;;;;;;23.75;22.75;;;;;-146.03;100.00;60875.16;6275238;22;45273;-87
2022/04/16 04:14:24;;;;;;;;;30.00;26.50;;;;;-146.03;100.00;60875.16;6247077;22;46721;-87
2022/04/16 04:16:49;;;;;;;;;30.50;27.75;;;;;-146.03;100.00;60875.16;6246940;22;48249;-88
2022/04/16 04:19:14;;;;;;;;;27.00;26.00;;;;;-146.03;100.00;60875.16;6273873;22;54296;-88
2022/04/16 04:21:40;;;;;;;;;28.75;26.75;;;;;-146.03;100.00;60875.16;6246534;22;46747;-87
2022/04/16 04:24:05;;;;;;;;;27.00;25.75;;;;;-146.03;100.00;60875.16;6273951;22;57201;-86
2022/04/16 04:26:30;;;;;;;;;28.75;28.75;;;;;-146.03;100.00;60875.16;6247232;22;52013;-87
2022/04/16 04:28:56;;;;;;;;;30.00;25.25;;;;;-146.03;100.00;60875.16;6274505;22;45294;-88
2022/04/16 04:31:21;;;;;;;;;28.00;28.00;;;;;-146.03;100.00;60875.16;6274318;22;53393;-87
2022/04/16 04:33:46;;;;;;;;;24.00;22.00;;;;;-146.03;100.00;60875.16;6274913;22;45368;-87
2022/04/16 04:36:12;;;;;;;;;28.25;27.00;;;;;-146.03;100.00;60875.16;6275537;22;45460;-88
2022/04/16 04:38:37;;;;;;;;;27.75;25.75;;;;;-146.03;100.00;60875.16;6246265;22;45679;-88
2022/04/16 04:41:04;;;;;;;;;25.25;24.00;;;;;-146.03;100.00;60875.16;6275010;22;45348;-88
2022/04/16 04:43:30;;;;;;;;;27.75;25.75;;;;;-146.03;100.00;60875.16;6247888;22;45577;-88
2022/04/16 04:45:55;;;;;;;;;31.75;30.50;;;;;-146.03;100.00;60875.16;6275155;22;46608;-88
2022/04/16 04:48:21;;;;;;;;;33.25;29.75;;;;;-146.03;100.00;60875.16;6246960;22;45301;-88
2022/04/16 04:50:46;;;;;;;;;30.75;28.75;;;;;-146.03;100.00;60875.16;6274487;22;45305;-87
2022/04/16 04:53:12;;;;;;;;;32.00;30.75;;;;;-146.03;100.00;60875.16;6274166;22;45352;-87
2022/04/16 04:55:37;;;;;;;;;32.25;27.00;;;;;-146.03;100.00;60875.16;6274654;22;45273;-87
2022/04/16 04:58:02;;;;;;;;;32.50;30.50;;;;;-146.03;100.00;60875.16;6274264;22;55046;-87
2022/04/16 05:00:28;;;;;;;;;34.00;30.50;;;;;-146.03;100.00;60875.16;6274285;22;45229;-88
2022/04/16 05:02:53;;;;;;;;;31.25;28.50;;;;;-146.03;100.00;60875.16;6273829;22;45179;-87
2022/04/16 05:05:19;;;;;;;;;29.25;27.00;;;;;-146.03;100.00;60875.16;6273277;22;47340;-87
2022/04/16 05:07:44;;;;;;;;;33.50;27.75;;;;;-146.03;100.00;60875.16;6273015;22;45432;-88
2022/04/16 05:10:10;;;;;;;;;34.00;31.25;;;;;-146.03;100.00;60875.16;6245455;22;45191;-87
2022/04/16 05:12:35;;;;;;;;;28.50;28.50;;;;;-146.03;100.00;60875.16;6273748;22;45361;-87
2022/04/16 05:15:01;;;;;;;;;29.75;28.00;;;;;-146.03;100.00;60875.16;6273669;22;45869;-88
2022/04/16 05:17:27;;;;;;;;;28.00;27.50;;;;;-146.03;100.00;60875.16;6245665;22;45399;-91
2022/04/16 05:19:52;;;;;;;;;36.00;30.00;;;;;-146.03;100.00;60875.16;6245379;22;45842;-90
2022/04/16 05:22:18;;;;;;;;;30.25;26.50;;;;;-146.03;100.00;60875.16;6273108;22;45269;-87
2022/04/16 05:24:46;;;;;;;;;33.75;29.75;;;;;-146.03;100.00;60875.16;6273054;22;45398;-88
2022/04/16 05:27:12;;;;;;;;;30.50;29.00;;;;;-146.03;100.00;60875.16;6273513;22;45658;-88
2022/04/16 05:29:56;;;;;;;;;31.00;29.00;;;;;-146.03;100.00;60875.16;6273119;22;45356;-86
2022/04/16 05:32:23;;;;;;;;;35.25;31.00;;;;;-146.03;100.00;60875.16;6273647;22;45657;-88
2022/04/16 05:34:48;;;;;;;;;37.25;31.00;;;;;-146.03;100.00;60875.16;6273232;22;45678;-87
2022/04/16 05:37:14;;;;;;;;;33.25;30.75;;;;;-146.03;100.00;60875.16;6273197;22;45337;-88
2022/04/16 05:39:39;;;;;;;;;34.25;30.75;;;;;-146.03;100.00;60875.16;6273648;22;45277;-87
2022/04/16 05:42:05;;;;;;;;;37.00;32.00;;;;;-146.03;100.00;60875.16;6273320;22;45186;-87
2022/04/16 05:44:30;;;;;;;;;32.75;29.75;;;;;-146.03;100.00;60875.16;6274073;22;45310;-86
2022/04/16 05:46:55;;;;;;;;;33.25;31.00;;;;;-146.03;100.00;60875.16;6245879;22;45567;-89
2022/04/16 05:49:21;;;;;;;;;31.75;29.00;;;;;-146.03;100.00;60875.16;6273562;22;45274;-89
2022/04/16 05:51:46;;;;;;;;;26.25;26.25;;;;;-146.03;100.00;60875.16;6273262;22;45206;-89
2022/04/16 05:54:11;;;;;;;;;37.25;31.50;;;;;-146.03;100.00;60875.16;6245482;22;47184;-89
2022/04/16 05:56:37;;;;;;;;;33.50;30.75;;;;;-146.03;100.00;60875.16;6273464;22;45270;-89
2022/04/16 05:59:02;;;;;;;;;34.25;28.00;;;;;-146.03;100.00;60875.16;6245965;22;45347;-90
2022/04/16 06:01:28;;;;;;;;;30.75;29.25;;;;;-146.03;100.00;60875.16;6273048;22;45322;-91
2022/04/16 06:03:53;;;;;;;;;31.75;29.75;;;;;-146.03;100.00;60875.16;6272350;22;45420;-87
2022/04/16 06:06:18;;;;;;;;;32.00;31.25;;;;;-146.03;100.00;60875.16;6244467;22;56849;-87
2022/04/16 06:08:44;;;;;;;;;38.75;32.25;;;;;-146.03;100.00;60875.16;6273448;22;45386;-87
2022/04/16 06:11:11;;;;;;;;;32.50;31.50;;;;;-146.03;100.00;60875.16;6272917;22;52532;-88
2022/04/16 06:13:36;;;;;;;;;39.50;33.00;;;;;-146.03;100.00;60875.16;6272930;22;45439;-88
2022/04/16 06:16:02;;;;;;;;;35.00;32.50;;;;;-146.03;100.00;60875.16;6273145;22;45293;-87
2022/04/16 06:18:27;;;;;;;;;32.00;29.00;;;;;-146.03;100.00;60875.16;6273502;22;45246;-88
2022/04/16 06:20:54;;;;;;;;;30.25;27.75;;;;;-146.03;100.00;60875.16;6244755;22;45295;-86
2022/04/16 06:23:23;;;;;;;;;38.75;33.50;;;;;-146.03;100.00;60875.16;6246048;22;48461;-87
2022/04/16 06:25:49;;;;;;;;;31.50;31.00;;;;;-146.03;100.00;60875.16;6246544;22;45428;-87
2022/04/16 06:28:14;;;;;;;;;34.00;31.00;;;;;-146.03;100.00;60875.16;6274884;22;45397;-87
2022/04/16 06:30:39;;;;;;;;;38.00;33.75;;;;;-146.03;100.00;60875.16;6274338;22;45290;-86
2022/04/16 06:33:05;;;;;;;;;34.00;31.00;;;;;-146.03;100.00;60875.16;6274030;22;45256;-86
2022/04/16 06:35:30;;;;;;;;;36.75;32.25;;;;;-146.03;100.00;60875.16;6273439;22;58487;-87
2022/04/16 06:37:55;;;;;;;;;37.25;31.75;;;;;-146.03;100.00;60875.16;6274481;22;45450;-87
2022/04/16 06:40:21;;;;;;;;;38.25;34.00;;;;;-146.03;100.00;60875.16;6273877;22;50658;-88
2022/04/16 06:42:47;;;;;;;;;33.50;29.25;;;;;-146.03;100.00;60875.16;6246356;22;47257;-87
2022/04/16 06:45:13;;;;;;;;;37.25;34.00;;;;;-146.03;100.00;60875.16;6246911;22;45341;-87
2022/04/16 06:47:38;;;;;;;;;38.25;33.50;;;;;-146.03;100.00;60875.16;6246620;22;45596;-87
2022/04/16 06:50:05;;;;;;;;;36.75;33.00;;;;;-146.03;100.00;60875.16;6273870;22;45372;-88
2022/04/16 06:52:31;;;;;;;;;41.50;34.50;;;;;-146.03;100.00;60875.16;6246454;22;47012;-87
2022/04/16 06:54:57;;;;;;;;;38.50;32.00;;;;;-146.03;100.00;60875.16;6274290;22;45777;-87
2022/04/16 06:57:23;;;;;;;;;38.25;31.00;;;;;-146.03;100.00;60875.16;6274454;22;45277;-88
2022/04/16 06:59:48;;;;;;;;;36.50;33.75;;;;;-146.03;100.00;60875.16;6274354;22;45330;-88
2022/04/16 07:02:13;;;;;;;;;36.75;31.00;;;;;-146.03;100.00;60875.16;6273963;22;45436;-89
2022/04/16 07:04:40;;;;;;;;;39.00;30.50;;;;;-146.03;100.00;60875.16;6273727;22;45297;-88
2022/04/16 07:07:05;;;;;;;;;38.00;32.00;;;;;-146.03;100.00;60875.16;6274539;22;45334;-88
2022/04/16 07:09:31;;;;;;;;;38.75;34.00;;;;;-146.03;100.00;60875.16;6274206;22;45346;-88
2022/04/16 07:11:56;;;;;;;;;36.50;33.00;;;;;-146.03;100.00;60875.16;6246104;22;47129;-88
2022/04/16 07:14:22;;;;;;;;;33.75;31.50;;;;;-146.03;100.00;60875.16;6246407;22;45301;-88
2022/04/16 07:16:47;;;;;;;;;34.00;32.75;;;;;-146.03;100.00;60875.16;6274188;22;45384;-88
2022/04/16 07:19:13;;;;;;;;;38.75;33.00;;;;;-146.03;100.00;60875.16;6273423;22;45492;-87
2022/04/16 07:21:38;;;;;;;;;36.75;31.25;;;;;-146.03;100.00;60875.16;6246281;22;46906;-87
2022/04/16 07:24:04;;;;;;;;;38.50;32.00;;;;;-146.03;100.00;60875.16;6273698;22;50819;-87
2022/04/16 07:26:29;;;;;;;;;29.00;28.75;;;;;-146.03;100.00;60875.16;6246500;22;45223;-87
2022/04/16 07:28:55;;;;;;;;;33.00;30.00;;;;;-146.03;100.00;60875.16;6274274;22;45644;-87
2022/04/16 07:31:20;;;;;;;;;35.75;33.25;;;;;-146.03;100.00;60875.16;6274184;22;46500;-87
2022/04/16 07:33:46;;;;;;;;;39.00;34.25;;;;;-146.03;100.00;60875.16;6245544;22;45711;-87
2022/04/16 07:36:11;;;;;;;;;32.25;29.25;;;;;-146.03;100.00;60875.16;6246471;22;45314;-88
2022/04/16 07:38:36;;;;;;;;;31.75;29.75;;;;;-146.03;100.00;60875.16;6274033;22;45303;-88
2022/04/16 07:41:05;;;;;;;;;34.50;30.00;;;;;-146.03;100.00;60875.16;6273944;22;45286;-88
2022/04/16 07:43:30;;;;;;;;;33.75;32.25;;;;;-146.03;100.00;60875.16;6274222;22;45422;-87
2022/04/16 07:45:56;;;;;;;;;33.75;32.25;;;;;-146.03;100.00;60875.16;6273251;22;51529;-87
2022/04/16 07:48:21;;;;;;;;;31.75;28.00;;;;;-146.03;100.00;60875.16;6273632;22;45285;-87
2022/04/16 07:50:47;;;;;;;;;30.00;28.50;;;;;-146.03;100.00;60875.16;6273825;22;45321;-87
2022/04/16 07:53:12;;;;;;;;;30.50;29.25;;;;;-146.03;100.00;60875.16;6246197;22;45462;-87
2022/04/16 07:55:38;;;;;;;;;32.50;28.50;;;;;-146.03;100.00;60875.16;6274273;22;45308;-86
2022/04/16 07:58:04;;;;;;;;;32.50;30.50;;;;;-146.03;100.00;60875.16;6274347;22;45306;-88
2022/04/16 08:00:29;;;;;;;;;30.75;28.50;;;;;-146.03;100.00;60875.16;6273890;22;45596;-86
2022/04/16 08:02:55;;;;;;;;;34.75;31.00;;;;;-146.03;100.00;60875.16;6273072;22;45294;-86
2022/04/16 08:05:20;;;;;;;;;29.50;28.50;;;;;-146.03;100.00;60875.16;6274159;22;45218;-87
2022/04/16 08:07:46;;;;;;;;;33.00;29.25;;;;;-146.03;100.00;60875.16;6273999;22;45300;-86
2022/04/16 08:10:11;;;;;;;;;28.25;28.25;;;;;-146.03;100.00;60875.16;6273903;22;45266;-88
2022/04/16 08:12:37;;;;;;;;;30.75;26.25;;;;;-146.03;100.00;60875.16;6273528;22;45320;-87
2022/04/16 08:15:06;;;;;;;;;30.25;26.50;;;;;-146.03;100.00;60875.16;6273599;22;45348;-87
2022/04/16 08:17:32;;;;;;;;;36.75;31.50;;;;;-146.03;100.00;60875.16;6245606;22;45275;-88
2022/04/16 08:19:58;;;;;;;;;27.75;27.00;;;;;-146.03;100.00;60875.16;6273274;22;45277;-87
2022/04/16 08:22:23;;;;;;;;;30.75;27.50;;;;;-146.03;100.00;60875.16;6273770;22;45380;-87
2022/04/16 08:27:35;;;;;;;;;31.00;30.00;;;;;-146.03;100.00;60875.16;6273674;22;45264;-86
2022/04/16 08:30:00;;;;;;;;;26.50;25.25;;;;;-146.03;100.00;60875.16;6273378;22;45206;-87
2022/04/16 08:32:26;;;;;;;;;27.50;26.75;;;;;-146.03;100.00;60875.16;6273262;22;45247;-87
2022/04/16 08:34:51;;;;;;;;;30.00;27.50;;;;;-146.03;100.00;60875.16;6273782;22;45222;-87
2022/04/16 08:37:17;;;;;;;;;33.00;31.50;;;;;-146.03;100.00;60875.16;6273905;22;45307;-88
2022/04/16 08:39:42;;;;;;;;;28.25;26.50;;;;;-146.03;100.00;60875.16;6273010;22;51358;-87
2022/04/16 08:42:07;;;;;;;;;30.50;29.00;;;;;-146.03;100.00;60875.16;6273691;22;45280;-87
2022/04/16 08:44:33;;;;;;;;;34.50;30.25;;;;;-146.03;100.00;60875.16;6245742;22;45234;-87
2022/04/16 08:46:59;;;;;;;;;35.75;30.00;;;;;-146.03;100.00;60875.16;6273204;22;45346;-88
2022/04/16 08:49:27;;;;;;;;;20.25;17.25;;;;;-146.03;100.00;60875.16;6273479;22;45316;-87
2022/04/16 08:51:53;;;;;;;;;32.50;31.50;;;;;-146.03;100.00;60875.16;6273794;22;45385;-87
2022/04/16 08:54:18;;;;;;;;;32.25;28.75;;;;;-146.03;100.00;60875.16;6273839;22;45314;-88
2022/04/16 08:56:43;;;;;;;;;27.00;22.00;;;;;-146.03;100.00;60875.16;6274016;22;45328;-89
2022/04/16 08:59:09;;;;;;;;;27.75;26.00;;;;;-146.03;100.00;60875.16;6273113;22;51619;-88
2022/04/16 09:01:34;;;;;;;;;30.00;27.25;;;;;-146.03;100.00;60875.16;6272567;22;45345;-87
2022/04/16 09:04:00;;;;;;;;;27.25;26.00;;;;;-146.03;100.00;60875.16;6245460;22;45334;-88
2022/04/16 09:06:25;;;;;;;;;29.50;25.00;;;;;-146.03;100.00;60875.16;6272505;22;59001;-88
2022/04/16 09:08:51;;;;;;;;;28.75;26.75;;;;;-146.03;100.00;60875.16;6245410;22;47970;-88
2022/04/16 09:11:22;;;;;;;;;27.25;22.50;;;;;-146.03;100.00;60875.16;6273185;22;45290;-90
2022/04/16 09:13:50;;;;;;;;;26.75;26.50;;;;;-146.03;100.00;60875.16;6273020;22;45396;-87
2022/04/16 09:16:16;;;;;;;;;35.00;27.50;;;;;-146.03;100.00;60875.16;6273606;22;45189;-90
2022/04/16 09:18:52;;;;;;;;;24.00;24.00;;;;;-146.03;100.00;60875.16;6272893;22;45343;-88
2022/04/16 09:21:19;;;;;;;;;25.50;22.25;;;;;-146.03;100.00;60875.16;6272362;22;45285;-88
2022/04/16 09:23:53;;;;;;;;;25.00;25.00;;;;;-146.03;100.00;60875.16;6270009;22;45330;-88
2022/04/16 09:26:38;;;;;;;;;26.50;23.75;;;;;-146.03;100.00;60875.16;6272039;22;45459;-88
2022/04/16 09:29:12;;;;;;;;;27.75;22.75;;;;;-146.03;100.00;60875.16;6271837;22;45373;-88
2022/04/16 09:31:39;;;;;;;;;27.25;25.75;;;;;-146.03;100.00;60875.16;6271765;22;45317;-88
2022/04/16 09:34:05;;;;;;;;;22.25;22.25;;;;;-146.03;100.00;60875.16;6243907;22;45449;-88
2022/04/16 09:36:33;;;;;;;;;24.25;24.25;;;;;-146.03;100.00;60875.16;6271210;22;45352;-89
2022/04/16 09:39:06;;;;;;;;;31.00;28.75;;;;;-146.03;100.00;60875.16;6262458;22;46376;-90
2022/04/16 09:41:36;;;;;;;;;24.50;23.50;;;;;-146.03;100.00;60875.16;6270594;22;45392;-87
2022/04/16 09:44:02;;;;;;;;;21.50;21.50;;;;;-146.03;100.00;60875.16;6270226;22;45297;-88
2022/04/16 09:46:30;;;;;;;;;25.00;23.50;;;;;-146.03;100.00;60875.16;6242116;22;45358;-86
2022/04/16 09:49:03;;;;;;;;;27.25;24.75;;;;;-146.03;100.00;60875.16;6271071;22;46028;-87
2022/04/16 09:51:33;;;;;;;;;27.50;23.00;;;;;-146.03;100.00;60875.16;6271194;22;45357;-88
2022/04/16 09:54:03;;;;;;;;;21.25;20.50;;;;;-146.03;100.00;60875.16;6270838;22;45267;-87
2022/04/16 09:56:32;;;;;;;;;19.50;18.75;;;;;-146.03;100.00;60875.16;6269171;22;45319;-85
2022/04/16 09:59:01;;;;;;;;;17.50;17.25;;;;;-146.03;100.00;60875.16;6269857;22;45478;-85
2022/04/16 10:01:28;;;;;;;;;19.50;19.50;;;;;-146.03;100.00;60875.16;6270408;22;45277;-85
2022/04/16 10:03:54;;;;;;;;;15.50;12.25;;;;;-146.03;100.00;60875.16;6270873;22;45377;-85
2022/04/16 10:06:20;;;;;;;;;21.50;20.00;;;;;-146.03;100.00;60875.16;6270779;22;45375;-85
2022/04/16 10:08:50;;;;;;;;;24.75;22.75;;;;;-146.03;100.00;60875.16;6270055;22;47476;-85
2022/04/16 10:11:21;;;;;;;;;15.75;15.75;;;;;-146.03;100.00;60875.16;6270994;22;45238;-85
2022/04/16 10:14:03;;;;;;;;;19.75;18.50;;;;;-146.03;100.00;60875.16;6269628;22;45336;-85
2022/04/16 10:17:12;;;;;;;;;18.75;17.75;;;;;-146.03;100.00;60875.16;6269647;22;45313;-85
2022/04/16 10:20:30;;;;;;;;;22.00;19.00;;;;;-146.03;100.00;60875.16;6270018;22;46360;-84
2022/04/16 10:22:58;;;;;;;;;19.00;19.00;;;;;-146.03;100.00;60875.16;6251422;22;45648;-84
2022/04/16 10:25:44;;;;;;;;;21.25;17.00;;;;;-146.03;100.00;60875.16;6272319;22;45343;-84
2022/04/16 10:28:12;;;;;;;;;13.50;13.50;;;;;-146.03;100.00;60875.16;6271992;22;45298;-84
2022/04/16 10:30:42;;;;;;;;;15.75;15.75;;;;;-146.03;100.00;60875.16;6271806;22;45933;-84
2022/04/16 10:33:21;;;;;;;;;12.25;11.50;;;;;-146.03;100.00;60875.16;6271789;22;45262;-84
2022/04/16 10:35:58;;;;;;;;;15.25;15.25;;;;;-146.03;100.00;60875.16;6272543;22;45369;-84
2022/04/16 10:38:25;;;;;;;;;12.50;12.50;;;;;-146.03;100.00;60875.16;6271988;22;45337;-84
2022/04/16 10:40:58;;;;;;;;;16.50;12.75;;;;;-146.03;100.00;60875.16;6271171;22;46694;-86
2022/04/16 10:43:33;;;;;;;;;20.50;17.75;;;;;-146.03;100.00;60875.16;6270158;22;45317;-84
2022/04/16 10:46:09;;;;;;;;;16.25;15.25;;;;;-146.03;100.00;60875.16;6272040;22;45328;-85
2022/04/16 10:48:36;;;;;;;;;13.25;13.25;;;;;-146.03;100.00;60875.16;6271915;22;45246;-84
2022/04/16 10:51:03;;;;;;;;;21.25;19.50;;;;;-146.03;100.00;60875.16;6271875;22;46091;-84
2022/04/16 10:53:32;;;;;;;;;15.50;15.25;;;;;-146.03;100.00;60875.16;6271491;22;46186;-84
2022/04/16 10:56:12;;;;;;;;;18.50;17.00;;;;;-146.03;100.00;60875.16;6271533;22;45272;-84
2022/04/16 10:58:43;;;;;;;;;19.00;17.00;;;;;-146.03;100.00;60875.16;6271601;22;45301;-84
2022/04/16 11:01:10;;;;;;;;;21.00;19.50;;;;;-146.03;100.00;60875.16;6271821;22;45488;-84
2022/04/16 11:03:48;;;;;;;;;15.75;14.50;;;;;-146.03;100.00;60875.16;6271648;22;45289;-85
2022/04/16 11:06:16;;;;;;;;;23.50;20.50;;;;;-146.03;100.00;60875.16;6271857;22;45324;-85
2022/04/16 11:08:45;;;;;;;;;20.25;18.50;;;;;-146.03;100.00;60875.16;6271980;22;45361;-85